Time;durP1;ratioP1;P1;durP2;ratioP2;P2;SDS_P1;SDS_P2;PMS_P1;PMS_P2;Temp;Humidity;BMP_temperature;BMP_pressure;BME280_temperature;BME280_humidity;BME280_pressure;Samples;Min_cycle;Max_cycle;Signal;HPM_P1;HPM_P2
2022/06/21 00:00:06;;;;;;;0.55;0.40;;;22.60;51.10;;;;;;6194167;28;20034;-73
2022/06/21 00:03:12;;;;;;;0.50;0.40;;;22.60;51.10;;;;;;6195029;28;20026;-73
2022/06/21 00:06:21;;;;;;;0.38;0.30;;;22.60;51.10;;;;;;6202347;28;20045;-72
2022/06/21 00:09:23;;;;;;;0.55;0.50;;;22.60;51.10;;;;;;6219572;28;20045;-73
2022/06/21 00:12:24;;;;;;;0.90;0.40;;;22.60;51.10;;;;;;6202958;28;20486;-73
2022/06/21 00:15:25;;;;;;;0.38;0.28;;;22.60;51.10;;;;;;6194918;28;20057;-73
2022/06/21 00:18:28;;;;;;;0.60;0.30;;;22.60;51.20;;;;;;6218691;28;20021;-73
2022/06/21 00:21:36;;;;;;;0.63;0.32;;;22.60;51.20;;;;;;6211240;28;20501;-72
2022/06/21 00:24:36;;;;;;;0.52;0.30;;;22.60;51.20;;;;;;6194851;28;20097;-73
2022/06/21 00:27:37;;;;;;;0.20;0.20;;;22.60;51.20;;;;;;6210626;28;20097;-73
2022/06/21 00:30:39;;;;;;;0.35;0.35;;;22.60;51.20;;;;;;6218946;28;20440;-73
2022/06/21 00:33:40;;;;;;;0.38;0.35;;;22.60;51.20;;;;;;6194389;28;20030;-72
2022/06/21 00:36:41;;;;;;;0.20;0.20;;;22.60;51.20;;;;;;6201722;28;20390;-73
2022/06/21 00:39:41;;;;;;;0.40;0.30;;;22.60;51.20;;;;;;6218346;28;20038;-72
2022/06/21 00:42:45;;;;;;;0.30;0.30;;;22.60;51.20;;;;;;6203875;28;20390;-73
2022/06/21 00:45:48;;;;;;;0.43;0.30;;;22.60;51.20;;;;;;6193990;28;20468;-72
2022/06/21 00:48:50;;;;;;;0.52;0.30;;;22.60;51.20;;;;;;6217419;28;20025;-73
2022/06/21 00:51:57;;;;;;;0.40;0.40;;;22.60;51.20;;;;;;6194326;28;20026;-73
2022/06/21 00:55:14;;;;;;;0.30;0.30;;;22.60;51.20;;;;;;6215258;28;20029;-72
2022/06/21 00:58:18;;;;;;;0.47;0.40;;;22.60;51.20;;;;;;6200952;28;20463;-73
2022/06/21 01:01:23;;;;;;;0.30;0.30;;;22.60;51.30;;;;;;6200917;28;20591;-72
2022/06/21 01:04:27;;;;;;;;;;;22.60;51.30;;;;;;6194079;28;20037;-72
2022/06/21 01:07:28;;;;;;;0.40;0.40;;;22.60;51.30;;;;;;6203129;28;19913;-72
2022/06/21 01:10:30;;;;;;;0.60;0.50;;;22.50;51.20;;;;;;6218275;28;20520;-72
2022/06/21 01:13:35;;;;;;;0.65;0.32;;;22.60;51.30;;;;;;6200011;28;20033;-72
2022/06/21 01:16:38;;;;;;;0.40;0.30;;;22.60;51.30;;;;;;6191284;28;20039;-72
2022/06/21 01:19:57;;;;;;;0.40;0.40;;;22.60;51.30;;;;;;6217551;28;20472;-72
2022/06/21 01:23:17;;;;;;;0.52;0.38;;;22.60;51.30;;;;;;6206003;28;20022;-73
2022/06/21 01:26:32;;;;;;;0.60;0.45;;;22.60;51.30;;;;;;6193913;28;20030;-72
2022/06/21 01:29:35;;;;;;;0.38;0.35;;;22.60;51.30;;;;;;6216964;28;20079;-72
2022/06/21 01:32:36;;;;;;;0.32;0.30;;;22.60;51.40;;;;;;6210967;28;20034;-72
2022/06/21 01:35:42;;;;;;;1.17;0.40;;;22.50;51.30;;;;;;6193257;28;20022;-72
2022/06/21 01:39:08;;;;;;;0.20;0.20;;;22.60;51.40;;;;;;6208826;28;20050;-73
2022/06/21 01:42:16;;;;;;;0.77;0.38;;;22.60;51.40;;;;;;6215472;28;20040;-73
2022/06/21 01:45:24;;;;;;;0.70;0.30;;;22.50;51.30;;;;;;6193102;28;20505;-73
2022/06/21 01:48:31;;;;;;;0.50;0.47;;;22.50;51.30;;;;;;6204682;28;20512;-72
2022/06/21 01:51:54;;;;;;;0.50;0.32;;;22.60;51.40;;;;;;6218162;28;20108;-72
2022/06/21 01:55:08;;;;;;;0.32;0.25;;;22.60;51.40;;;;;;6194355;28;20033;-72
2022/06/21 01:58:16;;;;;;;0.40;0.40;;;22.50;51.30;;;;;;6201124;28;20030;-72
2022/06/21 02:01:29;;;;;;;0.68;0.40;;;22.50;51.40;;;;;;6217093;28;20053;-72
2022/06/21 02:04:34;;;;;;;0.43;0.43;;;22.50;51.40;;;;;;6199055;28;20022;-72
2022/06/21 02:07:40;;;;;;;0.30;0.30;;;22.50;51.40;;;;;;6194716;28;20112;-73
2022/06/21 02:10:50;;;;;;;0.30;0.30;;;22.50;51.40;;;;;;6217206;28;20508;-72
2022/06/21 02:17:28;;;;;;;0.28;0.28;;;22.50;51.40;;;;;;6193057;28;20357;-73
2022/06/21 02:20:33;;;;;;;0.57;0.32;;;22.50;51.40;;;;;;6192750;28;20034;-73
2022/06/21 02:23:34;;;;;;;0.30;0.30;;;22.50;51.40;;;;;;6194147;28;20490;-72
2022/06/21 02:26:35;;;;;;;0.50;0.40;;;22.50;51.40;;;;;;6197643;28;20162;-73
2022/06/21 02:29:36;;;;;;;0.30;0.25;;;22.50;51.40;;;;;;6213083;28;20105;-73
2022/06/21 02:32:40;;;;;;;0.40;0.40;;;22.50;51.40;;;;;;6221570;28;20465;-72
2022/06/21 02:36:01;;;;;;;0.40;0.40;;;22.50;51.50;;;;;;6197979;28;20030;-73
2022/06/21 02:39:06;;;;;;;0.45;0.30;;;22.50;51.40;;;;;;6206841;28;20049;-72
2022/06/21 02:42:28;;;;;;;0.55;0.28;;;22.50;51.50;;;;;;6221448;28;20022;-72
2022/06/21 02:45:41;;;;;;;1.13;0.30;;;22.50;51.50;;;;;;6200623;28;20057;-73
2022/06/21 02:48:52;;;;;;;0.40;0.40;;;22.50;51.50;;;;;;6202698;28;20327;-72
2022/06/21 02:52:03;;;;;;;0.30;0.30;;;22.50;51.50;;;;;;6221242;28;20026;-73
2022/06/21 02:55:34;;;;;;;0.47;0.40;;;22.50;51.50;;;;;;6205130;28;20034;-72
2022/06/21 02:58:47;;;;;;;0.40;0.30;;;22.50;51.50;;;;;;6196944;28;20053;-72
2022/06/21 03:01:54;;;;;;;0.30;0.30;;;22.50;51.50;;;;;;6196563;28;20019;-73
2022/06/21 03:05:03;;;;;;;0.30;0.30;;;22.50;52.90;;;;;;6210200;28;20417;-72
2022/06/21 03:08:06;;;;;;;0.85;0.43;;;22.40;50.30;;;;;;6220839;28;20034;-73
2022/06/21 03:11:07;;;;;;;0.75;0.30;;;22.50;49.60;;;;;;6198096;28;20026;-73
2022/06/21 03:14:18;;;;;;;0.88;0.50;;;22.70;49.00;;;;;;6201999;28;20018;-72
2022/06/21 03:17:23;;;;;;;0.25;0.25;;;22.80;48.50;;;;;;6220906;28;20037;-72
2022/06/21 03:20:24;;;;;;;0.45;0.40;;;22.90;48.00;;;;;;6205256;28;20601;-73
2022/06/21 03:23:25;;;;;;;0.40;0.30;;;23.00;47.70;;;;;;6193077;28;20058;-72
2022/06/21 03:26:27;;;;;;;0.60;0.30;;;23.20;47.60;;;;;;6219247;28;20030;-72
2022/06/21 03:29:29;;;;;;;0.70;0.40;;;23.20;47.30;;;;;;6211004;28;20026;-72
2022/06/21 03:32:36;;;;;;;0.80;0.40;;;23.30;47.30;;;;;;6195821;28;20031;-72
2022/06/21 03:35:37;;;;;;;0.57;0.40;;;23.30;47.10;;;;;;6210615;28;20556;-71
2022/06/21 03:38:42;;;;;;;0.47;0.30;;;23.30;46.80;;;;;;6220153;28;20058;-72
2022/06/21 03:41:44;;;;;;;;;;;23.30;46.80;;;;;;6197132;28;20378;-73
2022/06/21 03:45:00;;;;;;;0.30;0.30;;;23.30;46.70;;;;;;6200992;28;19912;-73
2022/06/21 03:48:10;;;;;;;0.30;0.30;;;23.30;46.60;;;;;;6220385;28;20029;-72
2022/06/21 03:51:22;;;;;;;0.68;0.30;;;23.40;46.50;;;;;;6202308;28;20416;-73
2022/06/21 03:54:26;;;;;;;0.63;0.60;;;23.40;46.50;;;;;;6209162;28;20725;-73
2022/06/21 03:57:33;;;;;;;0.20;0.20;;;23.40;46.30;;;;;;6178411;28;20027;-72
2022/06/21 04:00:59;;;;;;;0.40;0.30;;;23.40;46.20;;;;;;6195260;28;20026;-73
2022/06/21 04:04:13;;;;;;;0.30;0.30;;;23.50;46.30;;;;;;6195240;28;20458;-73
2022/06/21 04:07:48;;;;;;;0.50;0.38;;;23.40;46.20;;;;;;6219620;28;20038;-73
2022/06/21 04:10:49;;;;;;;0.30;0.30;;;23.50;46.20;;;;;;6193711;28;20045;-73
2022/06/21 04:13:56;;;;;;;0.30;0.30;;;23.50;46.00;;;;;;6177678;28;20036;-73
2022/06/21 04:17:02;;;;;;;0.65;0.40;;;23.50;46.00;;;;;;6215426;28;20492;-73
2022/06/21 04:20:15;;;;;;;0.20;0.20;;;23.50;46.10;;;;;;6195061;28;20034;-73
2022/06/21 04:23:31;;;;;;;0.45;0.30;;;23.50;46.00;;;;;;6177833;28;20149;-73
2022/06/21 04:26:50;;;;;;;0.40;0.30;;;23.40;45.90;;;;;;6210518;28;20042;-72
2022/06/21 04:29:54;;;;;;;0.30;0.30;;;23.50;45.90;;;;;;6217232;28;20036;-73
2022/06/21 04:33:14;;;;;;;0.40;0.40;;;23.50;45.80;;;;;;6194462;28;20026;-72
2022/06/21 04:36:24;;;;;;;0.55;0.30;;;23.50;45.70;;;;;;6206580;28;20449;-73
2022/06/21 04:39:34;;;;;;;0.20;0.20;;;23.50;45.70;;;;;;6218897;28;20149;-72
2022/06/21 04:42:44;;;;;;;0.20;0.20;;;23.50;46.00;;;;;;6195156;28;20560;-73
2022/06/21 04:45:49;;;;;;;0.30;0.30;;;23.20;47.30;;;;;;6199745;28;20030;-73
2022/06/21 04:49:11;;;;;;;0.47;0.40;;;23.00;48.30;;;;;;6219111;28;20477;-73
2022/06/21 04:52:16;;;;;;;0.88;0.52;;;22.90;48.70;;;;;;6200558;28;20384;-73
2022/06/21 04:55:20;;;;;;;0.25;0.25;;;22.80;48.70;;;;;;6195782;28;20026;-73
2022/06/21 04:58:21;;;;;;;0.25;0.25;;;22.80;48.80;;;;;;6216988;28;20034;-73
2022/06/21 05:01:34;;;;;;;0.20;0.20;;;22.80;49.10;;;;;;6208137;28;20092;-72
2022/06/21 05:04:41;;;;;;;0.40;0.40;;;22.70;49.30;;;;;;6177072;28;20034;-73
2022/06/21 05:08:23;;;;;;;0.30;0.30;;;22.70;49.30;;;;;;6211855;28;20117;-73
2022/06/21 05:11:24;;;;;;;0.30;0.30;;;22.70;49.30;;;;;;6205419;28;20397;-73
2022/06/21 05:14:30;;;;;;;0.43;0.28;;;22.70;49.70;;;;;;6191815;28;20106;-73
2022/06/21 05:17:34;;;;;;;0.70;0.25;;;22.70;49.70;;;;;;6210546;28;20022;-73
2022/06/21 05:20:39;;;;;;;0.40;0.30;;;22.70;49.70;;;;;;6216183;28;20409;-73
2022/06/21 05:23:40;;;;;;;0.70;0.25;;;22.70;50.00;;;;;;6193899;28;20022;-73
2022/06/21 05:26:47;;;;;;;1.08;0.30;;;22.70;50.70;;;;;;6198862;28;20042;-73
2022/06/21 05:29:57;;;;;;;0.60;0.47;;;22.70;50.00;;;;;;6217852;28;20026;-73
2022/06/21 05:33:03;;;;;;;0.22;0.20;;;22.60;49.90;;;;;;6199141;28;20130;-73
2022/06/21 05:36:10;;;;;;;0.22;0.22;;;22.60;49.80;;;;;;6192938;28;20462;-73
2022/06/21 05:39:21;;;;;;;1.00;0.40;;;22.60;50.20;;;;;;6193702;28;20533;-73
2022/06/21 05:42:25;;;;;;;0.30;0.20;;;22.60;50.00;;;;;;6205273;28;20021;-72
2022/06/21 05:45:33;;;;;;;0.30;0.30;;;22.60;50.20;;;;;;6217679;28;20476;-73
2022/06/21 05:48:36;;;;;;;0.35;0.32;;;22.60;50.40;;;;;;6196568;28;20023;-73
2022/06/21 05:51:37;;;;;;;0.63;0.30;;;22.60;50.50;;;;;;6198158;28;20033;-73
2022/06/21 05:54:51;;;;;;;0.52;0.30;;;22.60;50.50;;;;;;6198212;28;20382;-73
2022/06/21 05:58:03;;;;;;;0.40;0.30;;;22.60;50.50;;;;;;6216749;28;20026;-73
2022/06/21 06:01:12;;;;;;;0.65;0.30;;;22.60;50.60;;;;;;6202085;28;20061;-73
2022/06/21 06:04:21;;;;;;;0.30;0.30;;;22.60;50.40;;;;;;6223035;28;20030;-73
2022/06/21 06:08:02;;;;;;;1.23;0.60;;;22.60;50.50;;;;;;6226519;28;20080;-73
2022/06/21 06:11:09;;;;;;;2.42;1.13;;;22.60;50.50;;;;;;6167760;28;20171;-73
2022/06/21 06:14:09;;;;;;;0.50;0.30;;;22.60;50.50;;;;;;6201637;28;20160;-73
2022/06/21 06:17:20;;;;;;;2.00;0.50;;;22.60;50.60;;;;;;6189242;28;20026;-73
2022/06/21 06:20:57;;;;;;;1.35;0.55;;;22.60;50.50;;;;;;6222168;28;20026;-73
2022/06/21 06:24:30;;;;;;;2.45;0.70;;;22.60;50.30;;;;;;6177331;28;20033;-72
2022/06/21 06:27:45;;;;;;;5.35;1.08;;;22.60;49.60;;;;;;6223638;28;20042;-73
2022/06/21 06:30:55;;;;;;;3.47;1.10;;;22.60;49.80;;;;;;6207020;28;20125;-72
2022/06/21 06:34:03;;;;;;;2.42;0.93;;;22.60;50.10;;;;;;6205226;28;20754;-72
2022/06/21 06:37:08;;;;;;;2.83;0.85;;;22.60;50.40;;;;;;6199081;28;20136;-73
2022/06/21 06:40:26;;;;;;;2.00;0.60;;;22.60;50.40;;;;;;6195735;28;20114;-72
2022/06/21 06:43:41;;;;;;;1.75;0.45;;;22.60;50.50;;;;;;6211863;28;20088;-73
2022/06/21 06:46:49;;;;;;;1.33;0.50;;;22.60;50.50;;;;;;6210606;28;20580;-72
2022/06/21 06:49:57;;;;;;;2.40;0.50;;;22.60;50.50;;;;;;6222893;28;20026;-72
2022/06/21 06:53:10;;;;;;;1.73;0.52;;;22.60;50.50;;;;;;6215185;28;20026;-72
2022/06/21 06:56:18;;;;;;;1.10;0.40;;;22.60;50.60;;;;;;6219254;28;20489;-72
2022/06/21 06:59:23;;;;;;;2.55;0.65;;;22.60;50.60;;;;;;6187608;28;20042;-72
2022/06/21 07:02:32;;;;;;;2.30;0.50;;;22.60;50.60;;;;;;6200072;28;20105;-72
2022/06/21 07:05:36;;;;;;;0.85;0.45;;;22.60;50.50;;;;;;6222984;28;20381;-72
2022/06/21 07:08:45;;;;;;;1.08;0.60;;;22.60;50.40;;;;;;6222359;28;20473;-72
2022/06/21 07:12:15;;;;;;;1.00;0.50;;;22.60;50.40;;;;;;6222392;28;20080;-72
2022/06/21 07:15:18;;;;;;;1.25;0.50;;;22.60;50.40;;;;;;6181362;28;20121;-72
2022/06/21 07:18:31;;;;;;;1.05;0.50;;;22.60;50.50;;;;;;6195085;28;20025;-73
2022/06/21 07:21:31;;;;;;;1.80;0.40;;;22.60;50.50;;;;;;6201856;28;20433;-72
2022/06/21 07:24:32;;;;;;;0.93;0.50;;;22.70;50.70;;;;;;6201282;28;20046;-73
2022/06/21 07:27:36;;;;;;;0.73;0.40;;;22.70;50.70;;;;;;6198370;28;20388;-72
2022/06/21 07:30:42;;;;;;;0.60;0.30;;;22.80;50.80;;;;;;6201850;28;20330;-73
2022/06/21 07:33:48;;;;;;;2.55;0.40;;;22.80;50.70;;;;;;6213399;28;20038;-74
2022/06/21 07:37:04;;;;;;;1.13;0.50;;;22.80;50.70;;;;;;6197483;28;20046;-72
2022/06/21 07:40:17;;;;;;;1.90;0.68;;;22.70;50.70;;;;;;6197547;28;20026;-73
2022/06/21 07:43:55;;;;;;;1.17;0.60;;;22.70;50.80;;;;;;6200734;28;20058;-73
2022/06/21 07:47:11;;;;;;;2.83;0.43;;;22.70;51.00;;;;;;6221929;28;20029;-73
2022/06/21 07:50:21;;;;;;;0.57;0.40;;;22.70;51.00;;;;;;6200803;28;20038;-73
2022/06/21 07:53:30;;;;;;;1.33;0.55;;;22.70;51.10;;;;;;6190245;28;20032;-73
2022/06/21 07:56:42;;;;;;;0.68;0.40;;;22.70;51.10;;;;;;6221196;28;20026;-73
2022/06/21 07:59:57;;;;;;;1.52;0.50;;;22.70;51.10;;;;;;6221639;28;20032;-73
2022/06/21 08:06:43;;;;;;;0.80;0.45;;;22.70;51.00;;;;;;6184810;28;20042;-73
2022/06/21 08:09:53;;;;;;;0.85;0.40;;;22.70;51.00;;;;;;6186383;28;20121;-72
2022/06/21 08:12:54;;;;;;;1.40;0.50;;;22.70;51.00;;;;;;6197091;28;20387;-72
2022/06/21 08:16:22;;;;;;;1.15;0.40;;;22.80;51.00;;;;;;6216887;28;20057;-71
2022/06/21 08:19:34;;;;;;;0.75;0.50;;;23.00;51.10;;;;;;6210835;28;20034;-72
2022/06/21 08:22:46;;;;;;;1.42;0.60;;;23.00;51.00;;;;;;6194941;28;20015;-72
2022/06/21 08:25:48;;;;;;;0.98;0.40;;;23.00;51.00;;;;;;6195872;28;20332;-72
2022/06/21 08:28:53;;;;;;;0.47;0.32;;;23.00;51.10;;;;;;6197783;28;20026;-72
2022/06/21 08:32:00;;;;;;;0.68;0.40;;;23.00;51.00;;;;;;6208809;28;20037;-72
2022/06/21 08:35:28;;;;;;;0.60;0.30;;;23.00;51.10;;;;;;6205871;28;20034;-72
2022/06/21 08:38:35;;;;;;;0.77;0.30;;;22.90;51.00;;;;;;6217960;28;20073;-72
2022/06/21 08:41:58;;;;;;;1.15;0.40;;;23.00;51.00;;;;;;6197741;28;20044;-72
2022/06/21 08:45:43;;;;;;;3.03;0.50;;;23.00;51.10;;;;;;6293913;27;20379;-70
2022/06/21 08:49:02;;;;;;;1.25;0.50;;;23.00;51.00;;;;;;6291109;28;20728;-71
2022/06/21 08:52:15;;;;;;;3.35;0.40;;;23.00;51.00;;;;;;6291362;28;20501;-71
2022/06/21 08:55:29;;;;;;;0.65;0.38;;;22.90;50.90;;;;;;6289485;28;20391;-71
2022/06/21 08:58:51;;;;;;;1.00;0.40;;;22.90;50.90;;;;;;6290641;28;20016;-71
2022/06/21 09:01:52;;;;;;;0.65;0.38;;;22.90;50.90;;;;;;6289503;28;20176;-71
2022/06/21 09:05:08;;;;;;;0.50;0.30;;;22.90;50.90;;;;;;6289108;28;20032;-71
2022/06/21 09:08:31;;;;;;;1.30;0.45;;;22.90;50.90;;;;;;6291181;28;20048;-71
2022/06/21 09:11:44;;;;;;;1.13;0.40;;;23.00;51.00;;;;;;6290497;28;20016;-71
2022/06/21 09:15:06;;;;;;;0.98;0.55;;;23.00;51.00;;;;;;6289165;28;20031;-70
2022/06/21 09:18:22;;;;;;;0.50;0.40;;;22.90;50.90;;;;;;6288563;28;20485;-70
2022/06/21 09:21:42;;;;;;;0.85;0.35;;;22.90;50.90;;;;;;6290092;28;20017;-70
2022/06/21 09:25:02;;;;;;;0.38;0.30;;;23.00;51.00;;;;;;6287944;28;20039;-70
2022/06/21 09:28:13;;;;;;;1.05;0.40;;;23.00;51.10;;;;;;6289762;28;20033;-71
2022/06/21 09:31:40;;;;;;;0.30;0.30;;;23.10;51.10;;;;;;6288315;28;20055;-71
2022/06/21 09:34:58;;;;;;;0.73;0.50;;;23.00;51.00;;;;;;6283825;28;20072;-71
2022/06/21 09:38:17;;;;;;;0.85;0.40;;;23.10;51.10;;;;;;6265183;28;20022;-70
2022/06/21 09:41:29;;;;;;;0.55;0.22;;;23.00;51.00;;;;;;6288238;28;20025;-70
2022/06/21 09:44:46;;;;;;;1.00;0.30;;;23.00;51.00;;;;;;6287662;28;20147;-71
2022/06/21 09:48:05;;;;;;;0.47;0.28;;;23.00;51.00;;;;;;6289163;28;20025;-69
2022/06/21 09:51:41;;;;;;;0.57;0.35;;;23.00;51.10;;;;;;6288027;28;20509;-71
2022/06/21 09:54:49;;;;;;;;;;;23.00;51.10;;;;;;6274212;28;20044;-70
2022/06/21 09:57:56;;;;;;;1.20;0.47;;;23.00;51.00;;;;;;6271372;28;19904;-69
2022/06/21 10:01:09;;;;;;;0.60;0.30;;;23.00;51.00;;;;;;6273206;28;20490;-70
2022/06/21 10:04:23;;;;;;;0.50;0.40;;;23.00;51.10;;;;;;6271099;28;20032;-70
2022/06/21 10:07:57;;;;;;;0.75;0.43;;;23.00;51.00;;;;;;6272546;28;20511;-70
2022/06/21 10:11:33;;;;;;;0.50;0.30;;;23.00;51.00;;;;;;6271295;28;20029;-70
2022/06/21 10:14:52;;;;;;;0.47;0.30;;;23.00;51.00;;;;;;6270560;28;20138;-70
2022/06/21 10:18:06;;;;;;;0.43;0.30;;;23.00;51.10;;;;;;6271011;28;20032;-70
2022/06/21 10:21:26;;;;;;;0.40;0.30;;;22.90;51.00;;;;;;6269365;28;20032;-69
2022/06/21 10:24:44;;;;;;;0.30;0.30;;;23.00;51.10;;;;;;6269841;28;20470;-69
2022/06/21 10:27:55;;;;;;;0.73;0.32;;;23.00;51.20;;;;;;6271510;28;20045;-69
2022/06/21 10:31:22;;;;;;;0.30;0.30;;;22.90;51.70;;;;;;6271535;28;20017;-69
2022/06/21 10:35:00;;;;;;;1.55;0.40;;;22.90;51.10;;;;;;6270942;28;20035;-70
2022/06/21 10:38:28;;;;;;;0.60;0.30;;;22.90;51.80;;;;;;6271061;28;20024;-69
2022/06/21 10:45:37;;;;;;;0.52;0.30;;;22.90;51.10;;;;;;6270596;28;20063;-70
2022/06/21 10:49:01;;;;;;;0.40;0.35;;;22.90;51.20;;;;;;6270777;28;20029;-69
2022/06/21 10:52:29;;;;;;;2.28;0.50;;;22.90;51.20;;;;;;6291325;28;20036;-71
2022/06/21 10:57:09;;;;;;;0.65;0.30;;;22.90;51.20;;;;;;6245818;28;20100;-70
2022/06/21 10:59:18;;;;;;;0.50;0.30;;;22.90;51.20;;;;;;6246449;28;20043;-69
2022/06/21 11:02:37;;;;;;;0.38;0.30;;;22.90;51.20;;;;;;6257866;28;20103;-69
2022/06/21 11:06:15;;;;;;;0.63;0.40;;;22.90;51.20;;;;;;6270056;28;20025;-68
2022/06/21 11:09:27;;;;;;;0.57;0.40;;;22.90;51.20;;;;;;6244651;28;20018;-69
2022/06/21 11:15:52;;;;;;;1.40;0.45;;;22.90;51.20;;;;;;6271381;28;20037;-69
2022/06/21 11:19:18;;;;;;;1.95;0.50;;;22.90;51.20;;;;;;6270436;28;20112;-69
2022/06/21 11:22:47;;;;;;;2.40;0.30;;;22.80;51.10;;;;;;6270061;28;20028;-70
2022/06/21 11:25:54;;;;;;;0.90;0.57;;;22.80;51.10;;;;;;6269323;28;20021;-68
2022/06/21 11:29:07;;;;;;;0.43;0.38;;;22.80;51.10;;;;;;6269771;28;20056;-68
2022/06/21 11:32:34;;;;;;;0.77;0.50;;;22.80;51.10;;;;;;6269416;28;20744;-70
2022/06/21 11:36:02;;;;;;;1.27;0.60;;;22.80;51.10;;;;;;6268121;28;20035;-70
2022/06/21 11:39:02;;;;;;;0.57;0.40;;;22.90;51.20;;;;;;6268521;28;20029;-70
2022/06/21 11:42:24;;;;;;;0.70;0.40;;;22.80;51.20;;;;;;6268021;28;20478;-69
2022/06/21 11:45:28;;;;;;;0.85;0.50;;;22.80;51.20;;;;;;6268863;28;20419;-70
2022/06/21 11:48:34;;;;;;;0.73;0.40;;;22.80;51.20;;;;;;6269683;28;20036;-69
2022/06/21 11:51:44;;;;;;;0.95;0.45;;;22.80;51.20;;;;;;6269709;28;20024;-69
2022/06/21 11:55:12;;;;;;;0.25;0.20;;;22.80;51.20;;;;;;6268705;28;20084;-68
2022/06/21 11:58:27;;;;;;;1.30;0.50;;;22.80;51.20;;;;;;6269651;28;20032;-70
2022/06/21 12:01:51;;;;;;;0.60;0.40;;;22.80;51.20;;;;;;6270139;28;20036;-70
2022/06/21 12:05:15;;;;;;;4.22;0.60;;;22.80;51.20;;;;;;6269867;28;20382;-70
2022/06/21 12:08:42;;;;;;;2.58;0.57;;;22.90;51.40;;;;;;6267495;28;20059;-70
2022/06/21 12:12:08;;;;;;;1.58;0.50;;;22.90;51.30;;;;;;6268065;28;20033;-69
2022/06/21 12:15:30;;;;;;;0.85;0.38;;;22.90;51.30;;;;;;6268796;28;20075;-70
2022/06/21 12:18:35;;;;;;;2.17;0.40;;;22.80;51.30;;;;;;6267863;28;20398;-70
2022/06/21 12:21:45;;;;;;;1.02;0.30;;;22.80;51.30;;;;;;6268757;28;20047;-71
2022/06/21 12:24:45;;;;;;;1.17;0.50;;;22.80;51.30;;;;;;6266816;28;20362;-69
2022/06/21 12:27:47;;;;;;;1.33;0.60;;;22.80;51.30;;;;;;6268396;28;20039;-69
2022/06/21 12:30:48;;;;;;;0.82;0.50;;;22.80;51.40;;;;;;6267888;28;20028;-70
2022/06/21 12:33:55;;;;;;;1.35;0.40;;;22.80;51.40;;;;;;6268327;28;20056;-69
2022/06/21 12:37:01;;;;;;;1.02;0.57;;;22.80;51.40;;;;;;6267955;28;20017;-69
2022/06/21 12:40:24;;;;;;;1.17;0.40;;;22.80;51.40;;;;;;6268180;28;20029;-69
2022/06/21 12:43:44;;;;;;;0.80;0.40;;;22.80;51.50;;;;;;6266248;28;20037;-69
2022/06/21 12:47:27;;;;;;;0.40;0.30;;;22.80;51.60;;;;;;6266913;28;20055;-69
2022/06/21 12:50:36;;;;;;;0.50;0.40;;;22.70;51.60;;;;;;6253503;28;20071;-70
2022/06/21 12:53:56;;;;;;;1.15;0.63;;;22.70;51.60;;;;;;6216883;28;20022;-69
2022/06/21 12:57:14;;;;;;;0.60;0.43;;;22.70;51.60;;;;;;6259395;28;20086;-69
2022/06/21 13:00:37;;;;;;;4.13;0.50;;;22.70;51.60;;;;;;6268796;28;20685;-70
2022/06/21 13:03:50;;;;;;;0.40;0.40;;;22.70;51.60;;;;;;6269292;28;20021;-69
2022/06/21 13:07:02;;;;;;;1.13;0.50;;;22.70;51.70;;;;;;6241869;28;20113;-70
2022/06/21 13:10:44;;;;;;;1.27;0.68;;;22.70;51.80;;;;;;6258226;28;20029;-70
2022/06/21 13:13:54;;;;;;;1.15;0.30;;;22.70;51.80;;;;;;6265103;28;20033;-69
2022/06/21 13:16:57;;;;;;;0.75;0.40;;;22.70;51.80;;;;;;6266240;28;20438;-70
2022/06/21 13:20:20;;;;;;;0.70;0.40;;;22.70;51.80;;;;;;6261328;28;20059;-68
2022/06/21 13:23:42;;;;;;;0.73;0.50;;;22.70;51.80;;;;;;6236705;28;20041;-70
2022/06/21 13:27:16;;;;;;;0.98;0.50;;;22.70;51.80;;;;;;6241690;28;20033;-70
2022/06/21 13:30:30;;;;;;;0.70;0.45;;;22.70;52.00;;;;;;6264128;28;20028;-69
2022/06/21 13:33:39;;;;;;;1.13;0.45;;;22.80;51.60;;;;;;6272179;28;20562;-69
2022/06/21 13:36:46;;;;;;;0.60;0.45;;;22.80;51.50;;;;;;6271548;28;20044;-69
2022/06/21 13:40:07;;;;;;;0.35;0.32;;;22.80;51.40;;;;;;6272719;28;20029;-69
2022/06/21 13:43:13;;;;;;;0.40;0.40;;;22.90;51.50;;;;;;6271551;28;20051;-69
2022/06/21 13:46:24;;;;;;;0.80;0.40;;;22.90;51.40;;;;;;6270829;28;20048;-69
2022/06/21 13:49:33;;;;;;;2.40;0.50;;;22.90;51.40;;;;;;6271595;28;20047;-68
2022/06/21 13:52:49;;;;;;;1.45;0.45;;;22.90;51.40;;;;;;6272984;28;20055;-69
2022/06/21 13:55:59;;;;;;;0.80;0.50;;;22.90;51.40;;;;;;6272314;28;20052;-70
2022/06/21 13:59:14;;;;;;;1.60;0.60;;;22.90;51.30;;;;;;6273069;28;20028;-70
2022/06/21 14:02:48;;;;;;;0.93;0.50;;;22.90;51.30;;;;;;6270484;28;20048;-69
2022/06/21 14:06:02;;;;;;;1.55;0.32;;;23.00;51.40;;;;;;6271098;28;20636;-69
2022/06/21 14:09:27;;;;;;;1.02;0.40;;;22.90;51.30;;;;;;6252395;28;20126;-69
2022/06/21 14:12:32;;;;;;;0.60;0.40;;;22.90;51.30;;;;;;6269922;28;20025;-69
2022/06/21 14:15:42;;;;;;;2.15;0.55;;;23.00;51.60;;;;;;6270510;28;20029;-70
2022/06/21 14:19:12;;;;;;;1.15;0.40;;;23.00;51.40;;;;;;6272198;28;20090;-70
2022/06/21 14:22:27;;;;;;;1.80;0.50;;;23.00;51.30;;;;;;6267392;28;20029;-70
2022/06/21 14:25:47;;;;;;;;;;;23.00;51.30;;;;;;6274386;28;20033;-70
2022/06/21 14:29:01;;;;;;;1.38;0.38;;;23.10;51.40;;;;;;6264784;28;19909;-69
2022/06/21 14:32:23;;;;;;;6.93;0.70;;;23.00;51.90;;;;;;6271637;28;20028;-70
2022/06/21 14:35:32;;;;;;;0.52;0.40;;;23.10;51.60;;;;;;6272082;28;20454;-69
2022/06/21 14:38:50;;;;;;;0.47;0.30;;;23.00;51.70;;;;;;6271331;28;20032;-70
2022/06/21 14:41:57;;;;;;;1.05;0.45;;;23.00;51.60;;;;;;6269793;28;20029;-70
2022/06/21 14:45:05;;;;;;;0.77;0.40;;;23.00;51.60;;;;;;6269689;28;20048;-70
2022/06/21 14:48:41;;;;;;;4.05;0.80;;;23.00;51.50;;;;;;6245556;28;20025;-69
2022/06/21 14:52:22;;;;;;;0.55;0.45;;;23.00;51.60;;;;;;6239577;28;20040;-69
2022/06/21 14:55:41;;;;;;;0.52;0.32;;;23.00;52.20;;;;;;6249692;28;20075;-70
2022/06/21 14:58:51;;;;;;;0.88;0.40;;;23.10;51.60;;;;;;6271065;28;20021;-69
2022/06/21 15:02:12;;;;;;;1.25;0.52;;;23.10;51.60;;;;;;6270295;28;20109;-70
2022/06/21 15:05:13;;;;;;;0.80;0.40;;;23.10;51.60;;;;;;6269922;28;20041;-70
2022/06/21 15:08:33;;;;;;;0.68;0.40;;;23.10;51.50;;;;;;6270514;28;20036;-70
2022/06/21 15:15:01;;;;;;;0.50;0.30;;;23.00;51.50;;;;;;6269638;28;20032;-69
2022/06/21 15:18:25;;;;;;;1.02;0.52;;;23.00;51.50;;;;;;6270508;28;20028;-69
2022/06/21 15:21:36;;;;;;;0.40;0.40;;;23.00;51.60;;;;;;6268601;28;20025;-69
2022/06/21 15:24:38;;;;;;;1.10;0.40;;;23.00;51.60;;;;;;6267120;28;20021;-71
2022/06/21 15:27:44;;;;;;;0.30;0.30;;;23.00;51.60;;;;;;6269076;28;20437;-71
2022/06/21 15:31:04;;;;;;;3.40;0.52;;;23.00;51.60;;;;;;6269119;28;20486;-70
2022/06/21 15:34:05;;;;;;;0.80;0.40;;;23.00;51.60;;;;;;6270214;28;20025;-69
2022/06/21 15:37:27;;;;;;;0.38;0.32;;;23.00;51.80;;;;;;6270609;28;20025;-70
2022/06/21 15:40:55;;;;;;;0.55;0.40;;;23.00;51.70;;;;;;6268999;28;20029;-70
2022/06/21 15:44:01;;;;;;;3.28;0.68;;;23.00;51.80;;;;;;6269859;28;20525;-72
2022/06/21 15:50:50;;;;;;;0.98;0.57;;;23.10;51.90;;;;;;6268886;28;20485;-70
2022/06/21 15:54:19;;;;;;;2.60;0.50;;;23.10;51.90;;;;;;6268362;28;20048;-70
2022/06/21 15:57:51;;;;;;;1.83;0.60;;;23.10;51.90;;;;;;6270020;28;20082;-70
2022/06/21 16:01:15;;;;;;;0.60;0.40;;;23.00;51.80;;;;;;6268393;28;20028;-69
2022/06/21 16:04:44;;;;;;;1.30;0.38;;;23.00;51.80;;;;;;6281357;28;20028;-70
2022/06/21 16:07:58;;;;;;;1.75;0.32;;;23.00;51.70;;;;;;6287064;28;20041;-70
2022/06/21 16:11:16;;;;;;;2.42;0.80;;;23.00;51.80;;;;;;6248367;28;20432;-70
2022/06/21 16:14:24;;;;;;;0.60;0.40;;;23.00;51.90;;;;;;6269309;28;20029;-71
2022/06/21 16:17:33;;;;;;;1.38;0.70;;;23.00;51.90;;;;;;6268274;28;20028;-69
2022/06/21 16:20:41;;;;;;;2.75;0.65;;;23.00;51.90;;;;;;6287731;28;20025;-69
2022/06/21 16:23:48;;;;;;;1.73;0.40;;;23.00;51.90;;;;;;6267919;28;20028;-69
2022/06/21 16:27:03;;;;;;;0.85;0.40;;;23.00;51.90;;;;;;6265685;28;20025;-69
2022/06/21 16:30:10;;;;;;;0.98;0.45;;;23.00;51.90;;;;;;6267355;28;20028;-69
2022/06/21 16:33:22;;;;;;;1.83;0.47;;;23.00;51.80;;;;;;6241247;28;20037;-69
2022/06/21 16:36:40;;;;;;;1.52;0.40;;;23.00;51.80;;;;;;6240397;28;20694;-69
2022/06/21 16:40:10;;;;;;;1.77;0.40;;;23.00;51.80;;;;;;6240999;28;20486;-70
2022/06/21 16:43:17;;;;;;;0.45;0.40;;;23.00;51.70;;;;;;6242495;28;20111;-70
2022/06/21 16:46:48;;;;;;;3.22;0.55;;;23.00;51.70;;;;;;6241865;28;20101;-69
2022/06/21 16:49:55;;;;;;;2.20;0.35;;;23.10;51.80;;;;;;6243002;28;20033;-70
2022/06/21 16:53:25;;;;;;;4.97;0.50;;;23.00;51.70;;;;;;6250282;28;20021;-70
2022/06/21 16:56:44;;;;;;;1.35;0.32;;;23.10;51.70;;;;;;6265573;28;20028;-70
2022/06/21 16:59:48;;;;;;;0.95;0.40;;;23.00;51.60;;;;;;6265700;28;20021;-69
2022/06/21 17:02:49;;;;;;;1.67;0.52;;;23.10;51.70;;;;;;6264874;28;20440;-69
2022/06/21 17:05:53;;;;;;;1.33;0.40;;;23.10;51.70;;;;;;6269598;28;20386;-69